Time;durP1;ratioP1;P1;durP2;ratioP2;P2;SDS_P1;SDS_P2;PMS_P1;PMS_P2;Temp;Humidity;BMP_temperature;BMP_pressure;BME280_temperature;BME280_humidity;BME280_pressure;Samples;Min_cycle;Max_cycle;Signal;HPM_P1;HPM_P2
2021/04/22 00:00:15;;;;;;;24.77;22.55;;;;;;;;;;5073455;28;20245;-74
2021/04/22 00:02:42;;;;;;;26.40;23.90;;;;;;;;;;5073417;28;20221;-74
2021/04/22 00:05:13;;;;;;;24.55;22.30;;;;;;;;;;5073514;28;20205;-73
2021/04/22 00:07:40;;;;;;;24.35;22.20;;;;;;;;;;5072173;28;20191;-74
2021/04/22 00:10:09;;;;;;;24.73;22.42;;;;;;;;;;5073242;28;20191;-74
2021/04/22 00:12:37;;;;;;;24.63;22.20;;;;;;;;;;5075836;28;20201;-75
2021/04/22 00:15:05;;;;;;;24.67;22.55;;;;;;;;;;5076959;28;20187;-76
2021/04/22 00:17:32;;;;;;;25.30;23.00;;;;;;;;;;5077308;28;20192;-76
2021/04/22 00:19:59;;;;;;;24.90;22.95;;;;;;;;;;5076909;28;20194;-74
2021/04/22 00:22:26;;;;;;;24.58;22.52;;;;;;;;;;5077109;28;20227;-74
2021/04/22 00:24:53;;;;;;;26.38;23.98;;;;;;;;;;5076811;28;20198;-74
2021/04/22 00:27:20;;;;;;;25.17;23.00;;;;;;;;;;5076803;28;20535;-74
2021/04/22 00:29:48;;;;;;;24.23;22.50;;;;;;;;;;5076891;28;20221;-74
2021/04/22 00:32:15;;;;;;;36.47;25.85;;;;;;;;;;5076810;28;20804;-75
2021/04/22 00:34:42;;;;;;;25.20;23.10;;;;;;;;;;5076583;28;20226;-74
2021/04/22 00:37:09;;;;;;;26.02;23.52;;;;;;;;;;5076825;28;20191;-74
2021/04/22 00:39:36;;;;;;;24.95;22.83;;;;;;;;;;5076768;28;20241;-74
2021/04/22 00:42:04;;;;;;;25.67;23.27;;;;;;;;;;5076504;28;20220;-74
2021/04/22 00:44:31;;;;;;;25.30;23.30;;;;;;;;;;5076772;28;20559;-74
2021/04/22 00:46:59;;;;;;;25.60;22.95;;;;;;;;;;5076743;28;20423;-73
2021/04/22 00:49:26;;;;;;;24.65;22.15;;;;;;;;;;5076558;28;20240;-74
2021/04/22 00:51:53;;;;;;;24.25;22.42;;;;;;;;;;5076908;28;20599;-74
2021/04/22 00:54:21;;;;;;;25.00;23.10;;;;;;;;;;5076067;28;20255;-74
2021/04/22 00:56:48;;;;;;;25.40;23.23;;;;;;;;;;5075919;28;20479;-74
2021/04/22 00:59:15;;;;;;;25.10;22.75;;;;;;;;;;5076146;28;20194;-74
2021/04/22 01:01:41;;;;;;;24.25;22.17;;;;;;;;;;5075977;28;20656;-75
2021/04/22 01:04:09;;;;;;;25.43;23.03;;;;;;;;;;5076061;28;20194;-74
2021/04/22 01:06:37;;;;;;;31.77;23.70;;;;;;;;;;5076021;28;20880;-74
2021/04/22 01:09:04;;;;;;;26.75;24.00;;;;;;;;;;5075978;28;20197;-75
2021/04/22 01:11:31;;;;;;;24.95;22.58;;;;;;;;;;5075880;28;20743;-74
2021/04/22 01:13:58;;;;;;;26.77;24.10;;;;;;;;;;5076047;28;20258;-74
2021/04/22 01:16:25;;;;;;;25.95;23.30;;;;;;;;;;5075737;28;20233;-74
2021/04/22 01:18:52;;;;;;;25.83;23.08;;;;;;;;;;5075769;28;20193;-74
2021/04/22 01:21:24;;;;;;;25.67;23.30;;;;;;;;;;5074788;28;20206;-74
2021/04/22 01:23:51;;;;;;;25.08;22.95;;;;;;;;;;5074532;28;20225;-74
2021/04/22 01:26:19;;;;;;;25.63;23.27;;;;;;;;;;5075969;28;20195;-74
2021/04/22 01:28:46;;;;;;;25.13;22.73;;;;;;;;;;5075529;28;20225;-73
2021/04/22 01:31:13;;;;;;;30.08;24.75;;;;;;;;;;5075777;28;20195;-74
2021/04/22 01:33:40;;;;;;;26.65;23.15;;;;;;;;;;5075766;28;20202;-74
2021/04/22 01:36:07;;;;;;;25.85;23.63;;;;;;;;;;5075583;28;20252;-74
2021/04/22 01:38:35;;;;;;;25.67;22.90;;;;;;;;;;5075638;28;20273;-74
2021/04/22 01:41:03;;;;;;;26.35;23.83;;;;;;;;;;5075352;28;20195;-74
2021/04/22 01:43:30;;;;;;;26.52;23.85;;;;;;;;;;5075518;28;20218;-74
2021/04/22 01:45:57;;;;;;;28.45;25.13;;;;;;;;;;5075267;28;20269;-74
2021/04/22 01:48:24;;;;;;;26.77;22.35;;;;;;;;;;5075331;28;20209;-74
2021/04/22 01:50:51;;;;;;;25.58;23.38;;;;;;;;;;5074239;28;20190;-74
2021/04/22 01:53:18;;;;;;;26.48;23.27;;;;;;;;;;5075346;28;20198;-74
2021/04/22 01:55:47;;;;;;;26.80;24.30;;;;;;;;;;5074856;28;20233;-74
2021/04/22 01:58:15;;;;;;;24.85;22.88;;;;;;;;;;5074741;28;21029;-75
2021/04/22 02:00:43;;;;;;;28.02;25.02;;;;;;;;;;5074865;28;20244;-74
2021/04/22 02:03:10;;;;;;;26.90;24.25;;;;;;;;;;5075125;28;20209;-74
2021/04/22 02:05:37;;;;;;;25.17;23.10;;;;;;;;;;5075116;28;20194;-74
2021/04/22 02:08:04;;;;;;;24.90;22.83;;;;;;;;;;5074896;28;20255;-73
2021/04/22 02:10:31;;;;;;;26.17;23.80;;;;;;;;;;5075051;28;20280;-74
2021/04/22 02:12:59;;;;;;;30.60;23.55;;;;;;;;;;5074966;28;20194;-74
2021/04/22 02:15:27;;;;;;;26.30;23.52;;;;;;;;;;5074752;28;20206;-74
2021/04/22 02:17:54;;;;;;;26.48;24.20;;;;;;;;;;5074623;28;20659;-74
2021/04/22 02:20:21;;;;;;;25.25;22.90;;;;;;;;;;5074785;28;20195;-74
2021/04/22 02:22:49;;;;;;;27.02;23.45;;;;;;;;;;5074382;28;20686;-74
2021/04/22 02:25:17;;;;;;;25.65;22.83;;;;;;;;;;5074686;28;20186;-74
2021/04/22 02:27:44;;;;;;;25.55;23.48;;;;;;;;;;5074327;28;20210;-74
2021/04/22 02:30:14;;;;;;;27.80;25.27;;;;;;;;;;5074707;28;20293;-74
2021/04/22 02:32:41;;;;;;;24.63;22.48;;;;;;;;;;5074400;28;20210;-74
2021/04/22 02:35:09;;;;;;;24.55;22.20;;;;;;;;;;5074184;28;20194;-74
2021/04/22 02:37:36;;;;;;;25.90;23.23;;;;;;;;;;5074083;28;20197;-74
2021/04/22 02:40:05;;;;;;;25.40;23.02;;;;;;;;;;5074508;28;20191;-74
2021/04/22 02:42:32;;;;;;;32.45;23.77;;;;;;;;;;5074387;28;20225;-74
2021/04/22 02:44:59;;;;;;;25.73;23.45;;;;;;;;;;5074427;28;20186;-75
2021/04/22 02:47:26;;;;;;;26.63;24.10;;;;;;;;;;5072951;28;20201;-74
2021/04/22 02:49:53;;;;;;;26.00;23.33;;;;;;;;;;5074017;28;20706;-74
2021/04/22 02:52:20;;;;;;;25.50;22.95;;;;;;;;;;5074220;28;20212;-74
2021/04/22 02:54:47;;;;;;;25.08;22.95;;;;;;;;;;5072959;28;20202;-74
2021/04/22 02:57:14;;;;;;;25.20;23.00;;;;;;;;;;5073575;28;20234;-74
2021/04/22 02:59:41;;;;;;;24.88;22.52;;;;;;;;;;5074037;28;20232;-74
2021/04/22 03:02:08;;;;;;;26.53;23.70;;;;;;;;;;5074003;28;20217;-74
2021/04/22 03:04:36;;;;;;;25.17;22.98;;;;;;;;;;5074348;28;20428;-74
2021/04/22 03:07:03;;;;;;;25.60;23.30;;;;;;;;;;5073759;28;20202;-74
2021/04/22 03:09:30;;;;;;;31.15;24.42;;;;;;;;;;5073679;28;20244;-74
2021/04/22 03:11:57;;;;;;;26.02;23.55;;;;;;;;;;5073788;28;20644;-74
2021/04/22 03:14:24;;;;;;;27.08;24.42;;;;;;;;;;5074088;28;20191;-74
2021/04/22 03:16:51;;;;;;;30.85;24.10;;;;;;;;;;5074423;28;20554;-75
2021/04/22 03:19:18;;;;;;;25.40;23.27;;;;;;;;;;5074259;28;20654;-74
2021/04/22 03:21:46;;;;;;;27.05;23.35;;;;;;;;;;5073554;28;20529;-74
2021/04/22 03:24:13;;;;;;;28.17;25.42;;;;;;;;;;5073967;28;20666;-74
2021/04/22 03:26:40;;;;;;;25.75;23.55;;;;;;;;;;5073518;28;20186;-74
2021/04/22 03:29:07;;;;;;;28.17;24.60;;;;;;;;;;5073781;28;20210;-74
2021/04/22 03:31:34;;;;;;;25.30;22.88;;;;;;;;;;5073790;28;20241;-74
2021/04/22 03:34:01;;;;;;;29.48;23.77;;;;;;;;;;5073452;28;20593;-74
2021/04/22 03:36:28;;;;;;;29.50;23.90;;;;;;;;;;5073735;28;20212;-74
2021/04/22 03:38:55;;;;;;;28.33;23.80;;;;;;;;;;5073326;28;20577;-74
2021/04/22 03:41:23;;;;;;;25.42;23.30;;;;;;;;;;5073631;28;20209;-74
2021/04/22 03:43:50;;;;;;;31.10;25.38;;;;;;;;;;5073236;28;20224;-74
2021/04/22 03:46:17;;;;;;;25.85;23.05;;;;;;;;;;5073554;28;20641;-74
2021/04/22 03:48:44;;;;;;;27.58;24.38;;;;;;;;;;5077346;28;20189;-74
2021/04/22 03:51:10;;;;;;;25.92;22.77;;;;;;;;;;5077696;28;20200;-75
2021/04/22 03:53:37;;;;;;;24.77;22.55;;;;;;;;;;5077352;28;20197;-74
2021/04/22 03:56:05;;;;;;;27.20;23.45;;;;;;;;;;5077373;28;20224;-75
2021/04/22 03:58:32;;;;;;;31.20;28.00;;;;;;;;;;5077369;28;20190;-74
2021/04/22 04:01:00;;;;;;;25.48;23.00;;;;;;;;;;5077082;28;20221;-74
2021/04/22 04:03:27;;;;;;;27.17;24.20;;;;;;;;;;5077098;28;20216;-75
2021/04/22 04:05:54;;;;;;;28.05;24.27;;;;;;;;;;5077416;28;20280;-74
2021/04/22 04:08:21;;;;;;;26.77;24.17;;;;;;;;;;5077328;28;20194;-75
2021/04/22 04:10:48;;;;;;;26.73;23.67;;;;;;;;;;5077291;28;20194;-74
2021/04/22 04:13:16;;;;;;;26.17;23.35;;;;;;;;;;5076983;28;20194;-75
2021/04/22 04:15:45;;;;;;;26.40;24.25;;;;;;;;;;5077230;28;20236;-75
2021/04/22 04:18:12;;;;;;;26.35;23.80;;;;;;;;;;5077212;28;20273;-74
2021/04/22 04:20:40;;;;;;;26.58;23.80;;;;;;;;;;5076551;28;20725;-75
2021/04/22 04:23:06;;;;;;;25.80;23.35;;;;;;;;;;5075893;28;20218;-75
2021/04/22 04:25:33;;;;;;;26.58;23.00;;;;;;;;;;5076692;28;20192;-74
2021/04/22 04:28:00;;;;;;;25.67;22.98;;;;;;;;;;5076797;28;20225;-74
2021/04/22 04:30:28;;;;;;;27.30;24.45;;;;;;;;;;5076869;28;20638;-74
2021/04/22 04:32:55;;;;;;;25.15;22.65;;;;;;;;;;5076549;28;20201;-74
2021/04/22 04:35:22;;;;;;;24.42;22.35;;;;;;;;;;5076769;28;20190;-74
2021/04/22 04:37:49;;;;;;;27.15;24.73;;;;;;;;;;5075399;28;20201;-74
2021/04/22 04:40:16;;;;;;;26.83;24.25;;;;;;;;;;5076729;28;20199;-74
2021/04/22 04:42:43;;;;;;;25.83;23.33;;;;;;;;;;5076577;28;20221;-75
2021/04/22 04:45:12;;;;;;;26.95;24.23;;;;;;;;;;5075436;28;20202;-74
2021/04/22 04:47:40;;;;;;;26.63;23.92;;;;;;;;;;5075415;28;20191;-76
2021/04/22 04:50:07;;;;;;;25.38;22.92;;;;;;;;;;5076532;28;20214;-76
2021/04/22 04:52:34;;;;;;;26.38;23.75;;;;;;;;;;5076719;28;20190;-77
2021/04/22 04:55:01;;;;;;;25.77;23.15;;;;;;;;;;5076557;28;20281;-76
2021/04/22 04:57:28;;;;;;;27.65;24.73;;;;;;;;;;5074378;28;20230;-77
2021/04/22 04:59:55;;;;;;;25.30;23.10;;;;;;;;;;5076154;28;20225;-77
2021/04/22 05:02:23;;;;;;;27.05;24.25;;;;;;;;;;5075922;28;20191;-76
2021/04/22 05:04:50;;;;;;;27.33;24.27;;;;;;;;;;5076000;28;20194;-76
2021/04/22 05:07:17;;;;;;;27.40;24.70;;;;;;;;;;5075862;28;20190;-72
2021/04/22 05:09:44;;;;;;;29.95;24.98;;;;;;;;;;5076081;28;20433;-72
2021/04/22 05:12:11;;;;;;;27.20;24.38;;;;;;;;;;5076191;28;20290;-72
2021/04/22 05:14:38;;;;;;;28.77;23.52;;;;;;;;;;5076172;28;20190;-72
2021/04/22 05:17:05;;;;;;;25.63;23.20;;;;;;;;;;5075819;28;20202;-72
2021/04/22 05:19:32;;;;;;;34.38;24.83;;;;;;;;;;5075505;28;20248;-71
2021/04/22 05:22:00;;;;;;;25.08;22.98;;;;;;;;;;5076036;28;20556;-72
2021/04/22 05:24:27;;;;;;;26.05;23.77;;;;;;;;;;5075525;28;20241;-71
2021/04/22 05:26:54;;;;;;;24.67;22.58;;;;;;;;;;5075661;28;20206;-72
2021/04/22 05:29:21;;;;;;;27.08;24.52;;;;;;;;;;5075478;28;20194;-72
2021/04/22 05:31:48;;;;;;;26.33;23.88;;;;;;;;;;5074463;28;20212;-72
2021/04/22 05:34:15;;;;;;;28.27;25.38;;;;;;;;;;5074549;28;20245;-72
2021/04/22 05:36:42;;;;;;;27.65;25.40;;;;;;;;;;5075486;28;20201;-71
2021/04/22 05:39:10;;;;;;;31.00;26.55;;;;;;;;;;5075269;28;20252;-71
2021/04/22 05:41:37;;;;;;;28.13;25.17;;;;;;;;;;5075602;28;20214;-72
2021/04/22 05:44:04;;;;;;;30.02;26.70;;;;;;;;;;5074186;28;20715;-71
2021/04/22 05:46:31;;;;;;;31.40;26.40;;;;;;;;;;5075299;28;20210;-72
2021/04/22 05:48:58;;;;;;;28.77;25.88;;;;;;;;;;5075134;28;20191;-72
2021/04/22 05:51:25;;;;;;;29.93;25.00;;;;;;;;;;5075253;28;20637;-71
2021/04/22 05:53:52;;;;;;;27.73;25.33;;;;;;;;;;5075672;28;20769;-72
2021/04/22 05:56:20;;;;;;;26.30;24.10;;;;;;;;;;5073635;28;20223;-72
2021/04/22 05:58:47;;;;;;;27.27;24.85;;;;;;;;;;5075234;28;20600;-72
2021/04/22 06:01:14;;;;;;;28.20;25.63;;;;;;;;;;5074898;28;20272;-72
2021/04/22 06:03:41;;;;;;;27.05;24.27;;;;;;;;;;5074984;28;20492;-72
2021/04/22 06:06:08;;;;;;;30.75;25.45;;;;;;;;;;5075067;28;20190;-72
2021/04/22 06:08:35;;;;;;;29.43;26.10;;;;;;;;;;5074608;28;20199;-72
2021/04/22 06:11:01;;;;;;;26.50;24.55;;;;;;;;;;5074130;28;20510;-72
2021/04/22 06:13:31;;;;;;;26.90;24.80;;;;;;;;;;5075046;28;20644;-75
2021/04/22 06:15:58;;;;;;;27.85;24.85;;;;;;;;;;5074569;28;20418;-72
2021/04/22 06:18:25;;;;;;;28.15;25.50;;;;;;;;;;5074849;28;20198;-71
2021/04/22 06:20:52;;;;;;;27.98;25.10;;;;;;;;;;5074501;28;20694;-72
2021/04/22 06:23:18;;;;;;;27.65;25.25;;;;;;;;;;5073495;28;20229;-72
2021/04/22 06:25:45;;;;;;;28.50;25.75;;;;;;;;;;5074465;28;20625;-72
2021/04/22 06:28:12;;;;;;;27.50;25.03;;;;;;;;;;5074544;28;20197;-72
2021/04/22 06:30:40;;;;;;;38.53;27.30;;;;;;;;;;5074626;28;20433;-71
2021/04/22 06:33:07;;;;;;;26.37;24.37;;;;;;;;;;5074636;28;20436;-72
2021/04/22 06:35:34;;;;;;;26.30;24.03;;;;;;;;;;5074556;28;20769;-72
2021/04/22 06:38:01;;;;;;;29.05;25.98;;;;;;;;;;5074201;28;20412;-72
2021/04/22 06:40:30;;;;;;;28.20;25.40;;;;;;;;;;5074138;28;20198;-72
2021/04/22 06:42:57;;;;;;;24.57;22.67;;;;;;;;;;5074324;28;20485;-72
2021/04/22 06:45:24;;;;;;;27.42;24.95;;;;;;;;;;5074316;28;20449;-71
2021/04/22 06:47:52;;;;;;;27.33;24.70;;;;;;;;;;5074196;28;20248;-71
2021/04/22 06:50:20;;;;;;;28.33;25.70;;;;;;;;;;5073993;28;21056;-72
2021/04/22 06:52:47;;;;;;;27.83;25.02;;;;;;;;;;5073963;28;20416;-72
2021/04/22 06:55:15;;;;;;;26.43;24.13;;;;;;;;;;5073930;28;20218;-72
2021/04/22 06:57:42;;;;;;;27.53;25.03;;;;;;;;;;5073380;28;20529;-72
2021/04/22 07:00:10;;;;;;;27.47;24.97;;;;;;;;;;5074517;28;20473;-72
2021/04/22 07:02:37;;;;;;;28.80;26.53;;;;;;;;;;5073825;28;20442;-72
2021/04/22 07:05:06;;;;;;;28.57;26.50;;;;;;;;;;5073591;28;20411;-72
2021/04/22 07:07:33;;;;;;;30.00;27.17;;;;;;;;;;5073503;28;20898;-72
2021/04/22 07:10:00;;;;;;;29.13;26.63;;;;;;;;;;5073986;28;20444;-72
2021/04/22 07:12:27;;;;;;;28.40;25.63;;;;;;;;;;5073371;28;20441;-72
2021/04/22 07:14:54;;;;;;;27.10;24.97;;;;;;;;;;5073529;28;20415;-72
2021/04/22 07:17:21;;;;;;;30.37;27.70;;;;;;;;;;5072975;28;20445;-72
2021/04/22 07:19:48;;;;;;;28.73;25.23;;;;;;;;;;5073360;28;20445;-72
2021/04/22 07:22:16;;;;;;;27.53;25.43;;;;;;;;;;5072149;28;20429;-72
2021/04/22 07:24:43;;;;;;;27.45;25.35;;;;;;;;;;5072085;28;20452;-72
2021/04/22 07:27:10;;;;;;;27.90;25.67;;;;;;;;;;5073249;28;20211;-72
2021/04/22 07:29:39;;;;;;;26.87;24.43;;;;;;;;;;5073238;28;20529;-72
2021/04/22 07:32:07;;;;;;;28.63;25.90;;;;;;;;;;5073626;28;20453;-72
2021/04/22 07:34:34;;;;;;;26.23;24.20;;;;;;;;;;5073689;28;20465;-73
2021/04/22 07:37:00;;;;;;;28.90;26.00;;;;;;;;;;5073055;28;20424;-72
2021/04/22 07:39:29;;;;;;;27.37;24.90;;;;;;;;;;5073461;28;20440;-72
2021/04/22 07:41:56;;;;;;;26.93;24.60;;;;;;;;;;5073333;28;20458;-72
2021/04/22 07:44:23;;;;;;;27.90;25.27;;;;;;;;;;5073471;28;20489;-72
2021/04/22 07:46:50;;;;;;;27.70;25.10;;;;;;;;;;5073610;28;20401;-72
2021/04/22 07:49:17;;;;;;;25.77;23.80;;;;;;;;;;5072327;28;20187;-76
2021/04/22 07:51:44;;;;;;;27.33;25.13;;;;;;;;;;5073682;28;20404;-76
2021/04/22 07:54:11;;;;;;;26.10;24.00;;;;;;;;;;5073678;28;20428;-77
2021/04/22 07:56:40;;;;;;;27.23;24.83;;;;;;;;;;5073112;28;20472;-78
2021/04/22 07:59:07;;;;;;;26.00;24.20;;;;;;;;;;5073005;28;20505;-77
2021/04/22 08:01:34;;;;;;;25.40;23.20;;;;;;;;;;5072507;28;20423;-78
2021/04/22 08:04:01;;;;;;;24.87;22.93;;;;;;;;;;5073192;28;20452;-76
2021/04/22 08:06:28;;;;;;;24.97;22.77;;;;;;;;;;5073610;28;20907;-76
2021/04/22 08:08:55;;;;;;;25.00;22.90;;;;;;;;;;5073131;28;20441;-78
2021/04/22 08:11:22;;;;;;;24.10;22.17;;;;;;;;;;5073320;28;20934;-76
2021/04/22 08:13:50;;;;;;;25.47;23.37;;;;;;;;;;5073328;28;20400;-76
2021/04/22 08:16:17;;;;;;;25.90;23.70;;;;;;;;;;5073047;28;20765;-75
2021/04/22 08:18:43;;;;;;;25.27;23.50;;;;;;;;;;5073293;28;20461;-76
2021/04/22 08:21:10;;;;;;;25.13;22.70;;;;;;;;;;5073241;28;20426;-77
2021/04/22 08:23:37;;;;;;;24.80;22.43;;;;;;;;;;5072913;28;20557;-76
2021/04/22 08:26:05;;;;;;;25.03;22.43;;;;;;;;;;5072911;28;20445;-71
2021/04/22 08:28:33;;;;;;;23.23;21.33;;;;;;;;;;5072730;28;20409;-76
2021/04/22 08:31:02;;;;;;;24.93;22.63;;;;;;;;;;5072917;28;20844;-77
2021/04/22 08:33:30;;;;;;;26.13;23.60;;;;;;;;;;5075002;28;20468;-72
2021/04/22 08:35:56;;;;;;;24.57;22.30;;;;;;;;;;5076760;28;20441;-74
2021/04/22 08:38:23;;;;;;;26.60;24.07;;;;;;;;;;5076701;28;20415;-75
2021/04/22 08:40:51;;;;;;;25.57;23.70;;;;;;;;;;5076729;28;20473;-72
2021/04/22 08:43:18;;;;;;;24.27;22.50;;;;;;;;;;5076730;28;20495;-78
2021/04/22 08:45:45;;;;;;;26.07;23.93;;;;;;;;;;5075488;28;20437;-72
2021/04/22 08:48:14;;;;;;;26.53;24.27;;;;;;;;;;5076551;28;20807;-71
2021/04/22 08:50:43;;;;;;;26.07;23.70;;;;;;;;;;5075237;28;20463;-72
2021/04/22 08:53:13;;;;;;;26.17;23.80;;;;;;;;;;5076232;28;20968;-72
2021/04/22 08:55:40;;;;;;;26.33;23.87;;;;;;;;;;5076063;28;20477;-71
2021/04/22 08:58:07;;;;;;;27.33;24.60;;;;;;;;;;5076196;28;20412;-72
2021/04/22 09:00:36;;;;;;;25.80;23.80;;;;;;;;;;5076389;28;20415;-73
2021/04/22 09:03:04;;;;;;;25.17;23.43;;;;;;;;;;5075912;28;20477;-74
2021/04/22 09:05:31;;;;;;;25.33;22.93;;;;;;;;;;5076326;28;20435;-73
2021/04/22 09:07:58;;;;;;;26.40;23.80;;;;;;;;;;5075848;28;20779;-73
2021/04/22 09:10:25;;;;;;;25.23;23.20;;;;;;;;;;5075858;28;20796;-72
2021/04/22 09:13:10;;;;;;;25.53;23.17;;;;;;;;;;5075825;28;20442;-72
2021/04/22 09:15:38;;;;;;;27.40;24.60;;;;;;;;;;5076186;28;20866;-73
2021/04/22 09:18:06;;;;;;;24.60;22.50;;;;;;;;;;5074553;28;20422;-73
2021/04/22 09:20:36;;;;;;;25.67;23.77;;;;;;;;;;5075699;28;20416;-77
2021/04/22 09:23:13;;;;;;;26.07;23.77;;;;;;;;;;5075950;28;20485;-77
2021/04/22 09:25:40;;;;;;;26.77;24.23;;;;;;;;;;5076682;28;20437;-84
2021/04/22 09:28:08;;;;;;;25.37;23.20;;;;;;;;;;5075971;28;20412;-73
2021/04/22 09:30:36;;;;;;;26.23;23.93;;;;;;;;;;5075810;28;20415;-73
2021/04/22 09:33:03;;;;;;;26.97;23.90;;;;;;;;;;5075895;28;20522;-72
2021/04/22 09:35:31;;;;;;;25.67;23.67;;;;;;;;;;5075755;28;20434;-72
2021/04/22 09:38:00;;;;;;;28.50;24.70;;;;;;;;;;5075852;28;20404;-72
2021/04/22 09:40:33;;;;;;;26.73;24.20;;;;;;;;;;5075447;28;20430;-72
2021/04/22 09:43:01;;;;;;;25.13;23.33;;;;;;;;;;5075620;28;20484;-72
2021/04/22 09:45:29;;;;;;;24.80;22.97;;;;;;;;;;5072914;28;20441;-72
2021/04/22 09:47:56;;;;;;;24.20;22.40;;;;;;;;;;5075920;28;20791;-71
2021/04/22 09:50:24;;;;;;;23.97;22.17;;;;;;;;;;5075444;28;20441;-71
2021/04/22 09:52:53;;;;;;;26.17;24.27;;;;;;;;;;5075476;28;20420;-74
2021/04/22 09:55:23;;;;;;;26.87;24.50;;;;;;;;;;5075311;28;20460;-72
2021/04/22 09:57:50;;;;;;;25.77;24.07;;;;;;;;;;5075238;28;20438;-75
2021/04/22 10:00:21;;;;;;;25.83;23.83;;;;;;;;;;5075252;28;20786;-72
2021/04/22 10:02:52;;;;;;;24.47;22.83;;;;;;;;;;5075843;28;20441;-71
2021/04/22 10:05:20;;;;;;;27.03;24.87;;;;;;;;;;5075415;28;20441;-74
2021/04/22 10:07:47;;;;;;;27.43;25.33;;;;;;;;;;5075163;28;20416;-73
2021/04/22 10:10:15;;;;;;;26.37;24.27;;;;;;;;;;5074856;28;20469;-74
2021/04/22 10:12:43;;;;;;;26.73;24.60;;;;;;;;;;5074843;28;20911;-75
2021/04/22 10:15:10;;;;;;;25.30;23.40;;;;;;;;;;5074744;28;20424;-72
2021/04/22 10:17:38;;;;;;;25.67;23.67;;;;;;;;;;5075088;28;20455;-75
2021/04/22 10:20:06;;;;;;;26.43;24.00;;;;;;;;;;5074958;28;20424;-72
2021/04/22 10:22:33;;;;;;;23.90;22.10;;;;;;;;;;5074619;28;20396;-79
2021/04/22 10:25:01;;;;;;;31.77;29.13;;;;;;;;;;5073327;28;20495;-71
2021/04/22 10:27:29;;;;;;;28.33;25.80;;;;;;;;;;5073959;28;20923;-71
2021/04/22 10:29:58;;;;;;;25.33;23.13;;;;;;;;;;5074758;28;20437;-72
2021/04/22 10:32:25;;;;;;;25.83;23.67;;;;;;;;;;5074548;28;20462;-80
2021/04/22 10:34:52;;;;;;;25.00;23.07;;;;;;;;;;5074312;28;20890;-73
2021/04/22 10:37:19;;;;;;;25.73;23.43;;;;;;;;;;5074096;28;20457;-72
2021/04/22 10:39:47;;;;;;;25.70;23.60;;;;;;;;;;5074458;28;20773;-71
2021/04/22 10:42:15;;;;;;;26.53;24.13;;;;;;;;;;5074268;28;20906;-72
2021/04/22 10:44:42;;;;;;;25.70;23.80;;;;;;;;;;5074316;28;20482;-72
2021/04/22 10:47:10;;;;;;;25.30;23.30;;;;;;;;;;5073939;28;20934;-73
2021/04/22 10:49:37;;;;;;;25.60;23.63;;;;;;;;;;5073614;28;20421;-72
2021/04/22 10:52:04;;;;;;;26.60;24.23;;;;;;;;;;5073222;28;20442;-72
2021/04/22 10:54:32;;;;;;;26.33;24.20;;;;;;;;;;5073817;28;20441;-72
2021/04/22 10:57:06;;;;;;;26.40;23.90;;;;;;;;;;5073652;28;20527;-80
2021/04/22 10:59:34;;;;;;;26.40;24.20;;;;;;;;;;5073618;28;20461;-75
2021/04/22 11:02:13;;;;;;;25.30;23.37;;;;;;;;;;5073830;28;20445;-75
2021/04/22 11:04:40;;;;;;;27.63;25.20;;;;;;;;;;5073997;28;20467;-77
2021/04/22 11:07:18;;;;;;;27.20;24.63;;;;;;;;;;5073826;28;20416;-74
2021/04/22 11:09:46;;;;;;;27.63;25.30;;;;;;;;;;5074021;28;20404;-74
2021/04/22 11:12:12;;;;;;;26.07;23.87;;;;;;;;;;5073824;28;20435;-76
2021/04/22 11:14:41;;;;;;;27.50;25.17;;;;;;;;;;5073742;28;20878;-76
2021/04/22 11:17:08;;;;;;;27.80;25.40;;;;;;;;;;5072852;28;20416;-75
2021/04/22 11:19:39;;;;;;;26.47;24.27;;;;;;;;;;5073815;28;20412;-75
2021/04/22 11:22:08;;;;;;;27.50;25.30;;;;;;;;;;5072503;28;20420;-76
2021/04/22 11:24:35;;;;;;;27.40;25.40;;;;;;;;;;5073802;28;20481;-76
2021/04/22 11:27:03;;;;;;;27.23;25.20;;;;;;;;;;5073734;28;20455;-76
2021/04/22 11:29:40;;;;;;;27.77;25.47;;;;;;;;;;5073331;28;20926;-76
2021/04/22 11:32:16;;;;;;;27.00;24.70;;;;;;;;;;5073783;28;20448;-76
2021/04/22 11:34:44;;;;;;;27.80;25.57;;;;;;;;;;5073634;28;20408;-77
2021/04/22 11:37:14;;;;;;;26.80;24.70;;;;;;;;;;5073752;28;20413;-76
2021/04/22 11:39:42;;;;;;;26.10;24.30;;;;;;;;;;5073633;28;20470;-76
2021/04/22 11:42:09;;;;;;;26.50;24.60;;;;;;;;;;5073717;28;20457;-76
2021/04/22 11:44:36;;;;;;;26.30;24.30;;;;;;;;;;5073589;28;20489;-76
2021/04/22 11:47:14;;;;;;;26.90;24.63;;;;;;;;;;5073645;28;20478;-76
2021/04/22 11:49:41;;;;;;;26.37;24.37;;;;;;;;;;5073322;28;20445;-76
2021/04/22 11:52:16;;;;;;;26.87;24.70;;;;;;;;;;5073623;28;20445;-76
2021/04/22 11:54:43;;;;;;;28.27;25.87;;;;;;;;;;5073428;28;20897;-76
2021/04/22 11:57:11;;;;;;;27.97;25.53;;;;;;;;;;5073041;28;20481;-76
2021/04/22 11:59:38;;;;;;;28.03;25.63;;;;;;;;;;5073179;28;20475;-76
2021/04/22 12:02:07;;;;;;;27.97;25.10;;;;;;;;;;5073618;28;20417;-77
2021/04/22 12:04:44;;;;;;;27.73;25.53;;;;;;;;;;5073203;28;20470;-77
2021/04/22 12:07:13;;;;;;;26.67;24.67;;;;;;;;;;5073207;28;20449;-76
2021/04/22 12:09:47;;;;;;;26.23;24.33;;;;;;;;;;5077019;28;20497;-77
2021/04/22 12:12:16;;;;;;;26.27;24.57;;;;;;;;;;5077321;28;20886;-76
2021/04/22 12:14:43;;;;;;;28.83;26.33;;;;;;;;;;5077445;28;20438;-77
2021/04/22 12:17:24;;;;;;;27.17;24.70;;;;;;;;;;5075871;28;20937;-76
2021/04/22 12:19:52;;;;;;;27.07;25.00;;;;;;;;;;5075870;28;20449;-81
2021/04/22 12:22:29;;;;;;;26.70;24.80;;;;;;;;;;5077031;28;20415;-76
2021/04/22 12:24:57;;;;;;;27.73;25.33;;;;;;;;;;5076778;28;20480;-76
2021/04/22 12:27:31;;;;;;;26.80;24.70;;;;;;;;;;5076971;28;20449;-76
2021/04/22 12:29:58;;;;;;;27.50;25.50;;;;;;;;;;5077958;28;20416;-75
2021/04/22 12:32:25;;;;;;;29.30;27.00;;;;;;;;;;5076675;28;20916;-76
2021/04/22 12:34:53;;;;;;;29.27;27.30;;;;;;;;;;5076821;28;20438;-76
2021/04/22 12:37:20;;;;;;;27.03;25.17;;;;;;;;;;5076554;28;20527;-75
2021/04/22 12:39:51;;;;;;;26.33;24.43;;;;;;;;;;5076548;28;20792;-75
2021/04/22 12:42:20;;;;;;;27.00;25.03;;;;;;;;;;5076565;28;20517;-76
2021/04/22 12:44:54;;;;;;;26.90;24.77;;;;;;;;;;5076653;28;20965;-76
2021/04/22 12:47:21;;;;;;;27.20;25.03;;;;;;;;;;5075437;28;20801;-76
2021/04/22 12:49:49;;;;;;;27.10;25.10;;;;;;;;;;5076848;28;20445;-76
2021/04/22 12:52:20;;;;;;;27.03;25.03;;;;;;;;;;5076629;28;20495;-76
2021/04/22 12:54:53;;;;;;;27.10;25.23;;;;;;;;;;5076244;28;20412;-75
2021/04/22 12:57:21;;;;;;;28.50;26.47;;;;;;;;;;5075781;28;20481;-75
2021/04/22 12:59:48;;;;;;;28.23;26.20;;;;;;;;;;5076417;28;20817;-75
2021/04/22 13:02:16;;;;;;;26.90;25.17;;;;;;;;;;5076095;28;20947;-75
2021/04/22 13:04:53;;;;;;;26.13;23.97;;;;;;;;;;5076223;28;20489;-76
2021/04/22 13:07:27;;;;;;;27.70;25.70;;;;;;;;;;5076069;28;20503;-76
2021/04/22 13:09:54;;;;;;;26.50;24.63;;;;;;;;;;5075921;28;20436;-76
2021/04/22 13:12:21;;;;;;;26.20;24.50;;;;;;;;;;5076065;28;20464;-75
2021/04/22 13:14:48;;;;;;;27.27;25.17;;;;;;;;;;5076225;28;20785;-76
2021/04/22 13:17:15;;;;;;;27.13;25.23;;;;;;;;;;5075796;28;20413;-77
2021/04/22 13:19:43;;;;;;;26.90;24.90;;;;;;;;;;5075626;28;20419;-76
2021/04/22 13:22:13;;;;;;;25.53;23.73;;;;;;;;;;5076026;28;20434;-75
2021/04/22 13:24:41;;;;;;;26.33;24.73;;;;;;;;;;5075774;28;20448;-76
2021/04/22 13:27:10;;;;;;;26.60;24.60;;;;;;;;;;5075399;28;20460;-76
2021/04/22 13:29:45;;;;;;;27.03;25.03;;;;;;;;;;5075813;28;20449;-76
2021/04/22 13:32:12;;;;;;;26.33;24.53;;;;;;;;;;5075649;28;20400;-76
2021/04/22 13:34:40;;;;;;;27.03;25.07;;;;;;;;;;5075861;28;20412;-76
2021/04/22 13:37:07;;;;;;;28.43;26.40;;;;;;;;;;5075260;28;20427;-76
2021/04/22 13:39:36;;;;;;;26.40;24.70;;;;;;;;;;5075747;28;20458;-76
2021/04/22 13:42:03;;;;;;;27.00;25.07;;;;;;;;;;5075824;28;20440;-77
2021/04/22 13:44:31;;;;;;;27.27;25.37;;;;;;;;;;5057912;28;20466;-77
2021/04/22 13:47:00;;;;;;;27.30;25.40;;;;;;;;;;5075693;28;20416;-77
2021/04/22 13:49:28;;;;;;;27.50;25.40;;;;;;;;;;5075314;28;20907;-76
2021/04/22 13:52:02;;;;;;;26.13;24.23;;;;;;;;;;5075573;28;20435;-75
2021/04/22 13:54:31;;;;;;;27.73;25.77;;;;;;;;;;5075171;28;20412;-76
2021/04/22 13:57:08;;;;;;;27.87;25.87;;;;;;;;;;5074843;28;20469;-76
2021/04/22 13:59:35;;;;;;;27.60;25.60;;;;;;;;;;5074911;28;20501;-78
2021/04/22 14:02:03;;;;;;;27.17;25.27;;;;;;;;;;5074995;28;20431;-75
2021/04/22 14:04:30;;;;;;;25.93;24.13;;;;;;;;;;5075114;28;20468;-79
2021/04/22 14:06:57;;;;;;;27.20;25.27;;;;;;;;;;5075261;28;20426;-80
2021/04/22 14:09:25;;;;;;;26.53;24.87;;;;;;;;;;5073895;28;20906;-79
2021/04/22 14:11:52;;;;;;;27.67;25.40;;;;;;;;;;5072761;28;20445;-73
2021/04/22 14:14:21;;;;;;;26.50;24.70;;;;;;;;;;5074349;28;20408;-76
2021/04/22 16:03:17;;;;;;;25.83;23.90;;;;;;;;;;5344683;22;1084994;-81
2021/04/22 16:05:44;;;;;;;25.37;23.57;;;;;;;;;;5053241;28;20253;-82